Massack, California
Current Conditions -  °F | °C
As of 4:52 AM on Thursday 30 Oct 2014 (Local Time) from KBLU Reporting Station
Clear Clear  
Wind Chill: 59°   Ceiling: Unl
Heat Index: 59°   Visibility: 10mi
Dew Point: 24°   Wind: 3mph
Humidity: 26%   Direction: 120°ESE
Pressure: 30.15"   Gusts: NA
Location:  39.939°N, 120.918°W
Report Text: KBLU 301152Z AUTO 12003KT 10SM CLR 15/M04 A3015 RMK AO2 SLP134 T01501044 10156 20139 58014
Loading
Personal Weather Stations






























Interactive Weather Map
Tropical Storm Tracking
New forecast layout! Learn more

10-Day Weather Forecast

Advertisements
Track Severe Weather on mobile